A- A+ FrançaisEnglishEspañol中国

le plus proche LFRQ Quimper-Pluguffan LFBT Tarbes-Lourdes-PyrénéesLFAV Valenciennes-Denain LFPB Paris-Le-Bourget

manche à air

La météo aéronautique pour les pilotes, la préparation du vol avec les METAR (METeorological Aerodrome Report, message d'observation des conditions météorologiques pour l'aviation) et Les TAF (Terminal Aerodrome Forecast : message de prévision à court terme des conditions météorologiques pour l'aviation). Et les autres ressources comme les VAC (Visual Approch Chart) et les NOTAM (Notice To Airman) pour préprer les vols.

Aéroport Kulusuk (Groenland) / OACI BGKK/ IATA KUS

L'altitude de l'aéroport Kulusuk est de 36 m=118 ft. Il est situé à proximité de Kulusuk (Groenland). La météo générale à 5 jours est disponible pour Kulusuk situé à 2.8 km.

METAR de l'aéroport Kulusuk - BGKK

BGKK 030750Z AUTO 23007KT 170V270 9999NDV NCD M08/M19 Q1006

Décodage du METAR de l'aéroport Kulusuk (GL)

METAR émis par BGKK le vendredi 3 janvier 2020 à 07:50 heure TU. C'est un METAR généré automatiquement. Attention ce METAR est obsolète car il a été émis il y a 6 heure et 55 minutes.

La visibilité est de supérieure à 10 km=supérieure à 6.2 sm.

La température est de -8°C=18 °F et le point rosée est de -19°C=-2 °F . Ce qui correspond à 41% d'humidité relative.

Le QNH est de 1006 hPa=29.71 inHg

Vent de 7 kt=13 km/h, orienté à 230°.

Pas de nuages.

TAF de l'aéroport Kulusuk - BGKK

BGKK 011419Z 0115/0120 06015KT 9999 FEW030 BKN120 TEMPO 0115/0120 SCT025 BKN060

BGKK 011419Z 0115/0120 06015KT 9999 quelques nuages à 030 couverture nuageuse fragmentée à 120 temporairement 0115/0120 nuages épars à 025 couverture nuageuse fragmentée à 060

Aéroport à proximité de Kulusuk

Météo générale à 5 jours à Kulusuk (2.8 km)BIPA Aéroport Patreksfjordur (604 km)BIID Aéroport Ingjaldssandur (613 km)BITE Aéroport Thingeyri (620 km)BIBD Aéroport Bíldudalur (622 km)BIRF Aéroport Rif (623 km)BIHT Aéroport Holt (624 km)

Vue aérienne de l'aéroport Kulusuk

NOTAM de l'aéroport Kulusuk

Les NOTAM sont fournis sans aucune garantie de leur actualité. Le pilote est le seul responsable de la vérification de sa validité avant de l'utiliser opérationnellement pour préparer un vol ou l'utiliser lors de sa navigation.

NOTAM Firefighting and rescue (à partir du dimanche 22 décembre 2019 à 13:36 jusqu'au lundi 1er juin 2020 à 19:00)

B0829/19 NOTAMN
Q) BGGL/QFFLT/IV/NBO/A /000/999/6534N03707W005
A) BGKK B) 1912221336 C) 2006011900 EST
E) SEA RESCUE UNAVAILABLE DUE TO ICE.
CREATED: 22 Dec 2019 13:39:00
SOURCE: EUECYIYN

NOTAM (à partir du dimanche 11 février 2001 à 20:00 jusqu'au mardi 30 novembre 2010 à 00:00)

SWBG0058 BGKK 01021120
(SNOWTAM 0058
A) BGKK
B) 01021120 C) 11 F) 7/7/7 G) 3/3/3 H) 5/5/5 N) 7/POOR
R) 7/POOR
T) RWY CONTAMINATION 25PCT 3MM ICE.- MEASURED
FRICTION COIFFICIENTS 65/65/65 TAP.)
CREATED: 02 Jan 2020 11:24:00
SOURCE: EUECYIYN

Sources des données